sensor_id;sensor_type;location;lat;lon;timestamp;pressure;altitude;pressure_sealevel;temperature;humidity
59063;BME280;44851;45.648;9.004;2023-03-13T00:00:56;99108.69;;;10.84;53.10
59063;BME280;44851;45.648;9.004;2023-03-13T00:03:22;99108.53;;;10.96;52.85
59063;BME280;44851;45.648;9.004;2023-03-13T00:05:48;99098.78;;;10.98;53.18
59063;BME280;44851;45.648;9.004;2023-03-13T00:08:13;99086.13;;;11.03;52.62
59063;BME280;44851;45.648;9.004;2023-03-13T00:10:39;99080.41;;;10.90;53.13
59063;BME280;44851;45.648;9.004;2023-03-13T00:13:06;99084.81;;;10.79;53.59
59063;BME280;44851;45.648;9.004;2023-03-13T00:15:32;99091.41;;;10.83;53.85
59063;BME280;44851;45.648;9.004;2023-03-13T00:17:57;99101.53;;;10.86;53.21
59063;BME280;44851;45.648;9.004;2023-03-13T00:20:23;99099.06;;;10.95;53.15
59063;BME280;44851;45.648;9.004;2023-03-13T00:22:49;99107.00;;;11.03;53.36
59063;BME280;44851;45.648;9.004;2023-03-13T00:25:14;99108.66;;;11.04;53.06
59063;BME280;44851;45.648;9.004;2023-03-13T00:27:40;99111.69;;;11.09;52.61
59063;BME280;44851;45.648;9.004;2023-03-13T00:30:06;99106.75;;;10.96;52.75
59063;BME280;44851;45.648;9.004;2023-03-13T00:32:32;99103.72;;;10.91;53.11
59063;BME280;44851;45.648;9.004;2023-03-13T00:34:57;99109.22;;;10.98;53.01
59063;BME280;44851;45.648;9.004;2023-03-13T00:37:22;99114.44;;;10.98;53.67
59063;BME280;44851;45.648;9.004;2023-03-13T00:39:48;99125.97;;;10.85;53.88
59063;BME280;44851;45.648;9.004;2023-03-13T00:42:13;99134.19;;;10.91;53.01
59063;BME280;44851;45.648;9.004;2023-03-13T00:44:39;99137.50;;;10.83;53.95
59063;BME280;44851;45.648;9.004;2023-03-13T00:47:04;99139.41;;;10.81;53.55
59063;BME280;44851;45.648;9.004;2023-03-13T00:49:31;99132.97;;;10.75;53.75
59063;BME280;44851;45.648;9.004;2023-03-13T00:51:57;99130.09;;;10.88;53.13
59063;BME280;44851;45.648;9.004;2023-03-13T00:54:22;99139.69;;;10.88;53.73
59063;BME280;44851;45.648;9.004;2023-03-13T00:56:47;99142.09;;;10.60;53.43
59063;BME280;44851;45.648;9.004;2023-03-13T00:59:13;99141.72;;;10.55;54.63
59063;BME280;44851;45.648;9.004;2023-03-13T01:01:39;99141.00;;;10.53;54.36
59063;BME280;44851;45.648;9.004;2023-03-13T01:04:07;99146.78;;;10.47;54.39
59063;BME280;44851;45.648;9.004;2023-03-13T01:06:35;99150.88;;;10.40;54.15
59063;BME280;44851;45.648;9.004;2023-03-13T01:09:03;99147.97;;;10.33;54.69
59063;BME280;44851;45.648;9.004;2023-03-13T01:11:30;99134.13;;;10.32;55.10
59063;BME280;44851;45.648;9.004;2023-03-13T01:13:59;99133.59;;;10.48;55.14
59063;BME280;44851;45.648;9.004;2023-03-13T01:16:26;99130.03;;;10.59;54.26
59063;BME280;44851;45.648;9.004;2023-03-13T01:18:54;99132.34;;;10.43;54.20
59063;BME280;44851;45.648;9.004;2023-03-13T01:21:21;99126.19;;;10.34;54.63
59063;BME280;44851;45.648;9.004;2023-03-13T01:23:48;99131.69;;;10.50;54.86
59063;BME280;44851;45.648;9.004;2023-03-13T01:26:14;99126.31;;;10.42;54.57
59063;BME280;44851;45.648;9.004;2023-03-13T01:28:39;99130.31;;;10.46;54.62
59063;BME280;44851;45.648;9.004;2023-03-13T01:33:39;99136.59;;;10.24;55.60
59063;BME280;44851;45.648;9.004;2023-03-13T01:36:06;99136.47;;;10.35;54.94
59063;BME280;44851;45.648;9.004;2023-03-13T01:38:32;99145.69;;;10.40;55.40
59063;BME280;44851;45.648;9.004;2023-03-13T01:40:57;99141.97;;;10.52;54.94
59063;BME280;44851;45.648;9.004;2023-03-13T01:54:08;99122.63;;;10.35;54.77
59063;BME280;44851;45.648;9.004;2023-03-13T01:56:44;99122.63;;;10.45;54.21
59063;BME280;44851;45.648;9.004;2023-03-13T01:59:14;99125.13;;;10.56;54.90
59063;BME280;44851;45.648;9.004;2023-03-13T02:01:43;99117.97;;;10.48;54.72
59063;BME280;44851;45.648;9.004;2023-03-13T02:04:12;99111.91;;;10.38;55.18
59063;BME280;44851;45.648;9.004;2023-03-13T02:06:40;99110.28;;;10.37;55.62
59063;BME280;44851;45.648;9.004;2023-03-13T02:09:11;99119.88;;;10.37;55.25
59063;BME280;44851;45.648;9.004;2023-03-13T02:11:44;99110.41;;;10.26;55.50
59063;BME280;44851;45.648;9.004;2023-03-13T02:14:12;99124.94;;;10.28;55.44
59063;BME280;44851;45.648;9.004;2023-03-13T02:16:38;99119.88;;;10.37;55.67
59063;BME280;44851;45.648;9.004;2023-03-13T02:19:16;99118.09;;;10.37;54.83
59063;BME280;44851;45.648;9.004;2023-03-13T02:21:47;99125.91;;;10.47;55.41
59063;BME280;44851;45.648;9.004;2023-03-13T02:25:26;99121.78;;;10.44;54.36
59063;BME280;44851;45.648;9.004;2023-03-13T02:27:18;99123.75;;;10.52;54.65
59063;BME280;44851;45.648;9.004;2023-03-13T02:29:44;99115.75;;;10.44;55.15
59063;BME280;44851;45.648;9.004;2023-03-13T02:32:10;99109.19;;;10.40;55.37
59063;BME280;44851;45.648;9.004;2023-03-13T02:34:38;99114.81;;;10.35;55.14
59063;BME280;44851;45.648;9.004;2023-03-13T02:37:05;99116.28;;;10.28;55.60
59063;BME280;44851;45.648;9.004;2023-03-13T02:39:35;99118.22;;;10.35;55.52
59063;BME280;44851;45.648;9.004;2023-03-13T02:42:03;99114.25;;;10.41;55.36
59063;BME280;44851;45.648;9.004;2023-03-13T02:44:29;99115.06;;;10.32;54.92
59063;BME280;44851;45.648;9.004;2023-03-13T02:46:54;99121.63;;;10.26;55.58
59063;BME280;44851;45.648;9.004;2023-03-13T02:49:21;99123.16;;;10.29;55.66
59063;BME280;44851;45.648;9.004;2023-03-13T02:51:47;99122.06;;;10.31;55.47
59063;BME280;44851;45.648;9.004;2023-03-13T02:54:16;99121.91;;;10.14;55.49
59063;BME280;44851;45.648;9.004;2023-03-13T02:56:43;99125.63;;;10.30;55.52
59063;BME280;44851;45.648;9.004;2023-03-13T02:59:09;99125.06;;;10.27;55.37
59063;BME280;44851;45.648;9.004;2023-03-13T03:01:35;99132.75;;;10.28;55.51
59063;BME280;44851;45.648;9.004;2023-03-13T03:04:00;99125.91;;;10.47;55.33
59063;BME280;44851;45.648;9.004;2023-03-13T03:06:26;99124.38;;;10.25;54.92
59063;BME280;44851;45.648;9.004;2023-03-13T03:08:51;99138.91;;;10.27;55.29
59063;BME280;44851;45.648;9.004;2023-03-13T03:11:16;99136.41;;;10.16;54.82
59063;BME280;44851;45.648;9.004;2023-03-13T03:13:42;99142.06;;;10.21;55.70
59063;BME280;44851;45.648;9.004;2023-03-13T03:16:09;99143.41;;;10.16;55.47
59063;BME280;44851;45.648;9.004;2023-03-13T03:18:36;99140.44;;;10.30;54.82
59063;BME280;44851;45.648;9.004;2023-03-13T03:21:02;99151.50;;;10.22;54.51
59063;BME280;44851;45.648;9.004;2023-03-13T03:23:33;99153.53;;;10.09;55.77
59063;BME280;44851;45.648;9.004;2023-03-13T03:26:00;99147.53;;;10.18;55.18
59063;BME280;44851;45.648;9.004;2023-03-13T03:28:25;99148.88;;;10.03;55.76
59063;BME280;44851;45.648;9.004;2023-03-13T03:30:51;99154.84;;;9.94;55.61
59063;BME280;44851;45.648;9.004;2023-03-13T03:33:22;99163.34;;;9.96;55.91
59063;BME280;44851;45.648;9.004;2023-03-13T03:35:48;99161.47;;;9.98;55.48
59063;BME280;44851;45.648;9.004;2023-03-13T03:38:15;99163.34;;;9.86;55.95
59063;BME280;44851;45.648;9.004;2023-03-13T03:40:40;99168.56;;;9.96;55.70
59063;BME280;44851;45.648;9.004;2023-03-13T03:43:06;99164.16;;;9.87;56.52
59063;BME280;44851;45.648;9.004;2023-03-13T03:45:31;99168.56;;;9.96;55.92
59063;BME280;44851;45.648;9.004;2023-03-13T03:47:57;99165.03;;;9.97;55.25
59063;BME280;44851;45.648;9.004;2023-03-13T03:50:26;99172.25;;;9.93;55.95
59063;BME280;44851;45.648;9.004;2023-03-13T03:52:51;99178.19;;;10.05;55.52
59063;BME280;44851;45.648;9.004;2023-03-13T03:55:17;99169.91;;;9.90;55.63
59063;BME280;44851;45.648;9.004;2023-03-13T03:57:43;99170.25;;;10.06;55.30
59063;BME280;44851;45.648;9.004;2023-03-13T04:00:09;99180.13;;;10.03;55.40
59063;BME280;44851;45.648;9.004;2023-03-13T04:02:36;99179.59;;;10.09;55.63
59063;BME280;44851;45.648;9.004;2023-03-13T04:05:02;99169.50;;;9.95;55.19
59063;BME280;44851;45.648;9.004;2023-03-13T04:07:28;99175.06;;;10.11;55.42
59063;BME280;44851;45.648;9.004;2023-03-13T04:09:53;99175.78;;;10.13;55.30
59063;BME280;44851;45.648;9.004;2023-03-13T04:12:19;99172.63;;;10.19;55.31
59063;BME280;44851;45.648;9.004;2023-03-13T04:14:44;99175.34;;;10.08;55.16
59063;BME280;44851;45.648;9.004;2023-03-13T04:17:10;99175.22;;;10.19;55.25
59063;BME280;44851;45.648;9.004;2023-03-13T04:19:35;99171.81;;;10.19;55.30
59063;BME280;44851;45.648;9.004;2023-03-13T04:22:00;99168.56;;;9.96;55.97
59063;BME280;44851;45.648;9.004;2023-03-13T04:24:26;99169.69;;;10.03;55.41
59063;BME280;44851;45.648;9.004;2023-03-13T04:26:51;99165.59;;;10.10;55.10
59063;BME280;44851;45.648;9.004;2023-03-13T04:29:17;99172.72;;;10.08;55.65
59063;BME280;44851;45.648;9.004;2023-03-13T04:31:42;99165.88;;;10.07;55.42
59063;BME280;44851;45.648;9.004;2023-03-13T04:34:07;99148.59;;;10.06;55.14
59063;BME280;44851;45.648;9.004;2023-03-13T04:36:33;99144.81;;;10.20;55.54
59063;BME280;44851;45.648;9.004;2023-03-13T04:38:58;99148.63;;;10.16;55.85
59063;BME280;44851;45.648;9.004;2023-03-13T04:41:24;99146.03;;;10.25;55.61
59063;BME280;44851;45.648;9.004;2023-03-13T04:43:49;99137.97;;;10.28;55.35
59063;BME280;44851;45.648;9.004;2023-03-13T04:46:14;99139.88;;;10.26;55.64
59063;BME280;44851;45.648;9.004;2023-03-13T04:48:40;99153.69;;;10.17;55.72
59063;BME280;44851;45.648;9.004;2023-03-13T04:51:05;99161.66;;;10.16;55.95
59063;BME280;44851;45.648;9.004;2023-03-13T04:53:31;99170.56;;;10.23;55.92
59063;BME280;44851;45.648;9.004;2023-03-13T04:55:56;99174.41;;;10.19;56.11
59063;BME280;44851;45.648;9.004;2023-03-13T04:58:22;99164.25;;;10.16;56.18
59063;BME280;44851;45.648;9.004;2023-03-13T05:00:47;99178.38;;;10.13;56.02
59063;BME280;44851;45.648;9.004;2023-03-13T05:03:12;99179.91;;;10.25;55.61
59063;BME280;44851;45.648;9.004;2023-03-13T05:05:38;99173.75;;;10.36;55.24
59063;BME280;44851;45.648;9.004;2023-03-13T05:08:03;99173.31;;;10.21;55.89
59063;BME280;44851;45.648;9.004;2023-03-13T05:10:30;99177.72;;;10.30;56.40
59063;BME280;44851;45.648;9.004;2023-03-13T05:12:55;99185.16;;;10.35;55.60
59063;BME280;44851;45.648;9.004;2023-03-13T05:15:21;99177.06;;;10.28;55.53
59063;BME280;44851;45.648;9.004;2023-03-13T05:17:46;99184.00;;;10.28;55.85
59063;BME280;44851;45.648;9.004;2023-03-13T05:20:12;99182.78;;;10.22;55.47
59063;BME280;44851;45.648;9.004;2023-03-13T05:22:37;99198.25;;;10.14;56.40
59063;BME280;44851;45.648;9.004;2023-03-13T05:25:03;99205.09;;;10.15;56.26
59063;BME280;44851;45.648;9.004;2023-03-13T05:27:30;99202.34;;;10.17;56.09
59063;BME280;44851;45.648;9.004;2023-03-13T05:29:55;99199.88;;;10.15;56.21
59063;BME280;44851;45.648;9.004;2023-03-13T05:32:21;99208.81;;;10.13;56.52
59063;BME280;44851;45.648;9.004;2023-03-13T05:34:46;99207.13;;;10.12;56.58
59063;BME280;44851;45.648;9.004;2023-03-13T05:37:12;99203.69;;;10.11;56.73
59063;BME280;44851;45.648;9.004;2023-03-13T05:39:37;99200.66;;;10.06;56.65
59063;BME280;44851;45.648;9.004;2023-03-13T05:42:03;99196.28;;;9.97;56.89
59063;BME280;44851;45.648;9.004;2023-03-13T05:44:28;99196.38;;;9.95;56.70
59063;BME280;44851;45.648;9.004;2023-03-13T05:46:54;99198.09;;;9.75;57.51
59063;BME280;44851;45.648;9.004;2023-03-13T05:49:19;99186.34;;;9.91;57.05
59063;BME280;44851;45.648;9.004;2023-03-13T05:51:44;99179.25;;;9.93;57.20
59063;BME280;44851;45.648;9.004;2023-03-13T05:54:10;99181.41;;;9.88;57.50
59063;BME280;44851;45.648;9.004;2023-03-13T05:56:35;99182.53;;;9.95;57.09
59063;BME280;44851;45.648;9.004;2023-03-13T05:59:01;99181.13;;;9.91;57.51
59063;BME280;44851;45.648;9.004;2023-03-13T06:01:26;99180.91;;;9.94;57.25
59063;BME280;44851;45.648;9.004;2023-03-13T06:03:53;99182.81;;;9.92;57.33
59063;BME280;44851;45.648;9.004;2023-03-13T06:06:18;99192.66;;;9.88;57.64
59063;BME280;44851;45.648;9.004;2023-03-13T06:08:43;99188.28;;;9.89;58.04
59063;BME280;44851;45.648;9.004;2023-03-13T06:11:09;99178.97;;;9.96;57.45
59063;BME280;44851;45.648;9.004;2023-03-13T06:13:34;99174.28;;;9.90;57.27
59063;BME280;44851;45.648;9.004;2023-03-13T06:16:00;99172.31;;;10.03;57.43
59063;BME280;44851;45.648;9.004;2023-03-13T06:18:25;99177.09;;;9.98;56.89
59063;BME280;44851;45.648;9.004;2023-03-13T06:20:56;99172.97;;;10.05;57.18
59063;BME280;44851;45.648;9.004;2023-03-13T06:23:22;99167.41;;;10.19;56.90
59063;BME280;44851;45.648;9.004;2023-03-13T06:25:47;99173.47;;;10.29;57.33
59063;BME280;44851;45.648;9.004;2023-03-13T06:28:13;99173.09;;;10.34;56.66
59063;BME280;44851;45.648;9.004;2023-03-13T06:30:39;99166.38;;;10.41;57.04
59063;BME280;44851;45.648;9.004;2023-03-13T06:33:04;99156.38;;;10.46;56.55
59063;BME280;44851;45.648;9.004;2023-03-13T06:35:29;99157.00;;;10.19;57.16
59063;BME280;44851;45.648;9.004;2023-03-13T06:37:55;99147.16;;;10.32;56.87
59063;BME280;44851;45.648;9.004;2023-03-13T06:40:20;99158.22;;;10.15;56.97
59063;BME280;44851;45.648;9.004;2023-03-13T06:42:46;99149.50;;;10.35;57.02
59063;BME280;44851;45.648;9.004;2023-03-13T06:45:11;99158.84;;;10.48;57.24
59063;BME280;44851;45.648;9.004;2023-03-13T06:47:36;99151.72;;;10.40;57.47
59063;BME280;44851;45.648;9.004;2023-03-13T06:50:02;99159.00;;;10.56;57.62
59063;BME280;44851;45.648;9.004;2023-03-13T06:52:27;99156.53;;;10.64;57.13
59063;BME280;44851;45.648;9.004;2023-03-13T06:54:53;99164.63;;;10.71;57.59
59063;BME280;44851;45.648;9.004;2023-03-13T06:57:18;99167.97;;;10.73;57.56
59063;BME280;44851;45.648;9.004;2023-03-13T06:59:44;99167.81;;;10.84;58.01
59063;BME280;44851;45.648;9.004;2023-03-13T07:02:11;99175.25;;;10.89;56.82
59063;BME280;44851;45.648;9.004;2023-03-13T07:04:36;99181.69;;;11.04;56.86
59063;BME280;44851;45.648;9.004;2023-03-13T07:07:02;99179.75;;;11.06;55.90
59063;BME280;44851;45.648;9.004;2023-03-13T07:09:27;99186.34;;;10.91;55.31
59063;BME280;44851;45.648;9.004;2023-03-13T07:11:53;99191.00;;;11.06;55.42
59063;BME280;44851;45.648;9.004;2023-03-13T07:14:19;99206.94;;;11.13;56.07
59063;BME280;44851;45.648;9.004;2023-03-13T07:16:45;99220.94;;;11.41;57.14
59063;BME280;44851;45.648;9.004;2023-03-13T07:19:10;99222.69;;;11.50;57.13
59063;BME280;44851;45.648;9.004;2023-03-13T07:21:36;99225.31;;;11.50;56.54
59063;BME280;44851;45.648;9.004;2023-03-13T07:24:02;99227.47;;;11.74;56.19
59063;BME280;44851;45.648;9.004;2023-03-13T07:26:28;99225.75;;;12.02;54.94
59063;BME280;44851;45.648;9.004;2023-03-13T07:28:54;99226.78;;;12.19;53.67
59063;BME280;44851;45.648;9.004;2023-03-13T07:31:20;99231.78;;;12.40;53.44
59063;BME280;44851;45.648;9.004;2023-03-13T07:33:47;99227.56;;;12.57;53.32
59063;BME280;44851;45.648;9.004;2023-03-13T07:36:14;99216.84;;;12.60;52.16
59063;BME280;44851;45.648;9.004;2023-03-13T07:38:40;99206.47;;;12.68;51.60
59063;BME280;44851;45.648;9.004;2023-03-13T07:41:10;99193.56;;;12.84;53.19
59063;BME280;44851;45.648;9.004;2023-03-13T07:43:35;99199.56;;;12.67;51.74
59063;BME280;44851;45.648;9.004;2023-03-13T07:46:03;99201.47;;;12.92;52.66
59063;BME280;44851;45.648;9.004;2023-03-13T07:48:31;99199.31;;;13.06;53.19
59063;BME280;44851;45.648;9.004;2023-03-13T07:50:57;99211.91;;;13.10;49.75
59063;BME280;44851;45.648;9.004;2023-03-13T07:53:23;99219.25;;;12.89;50.70
59063;BME280;44851;45.648;9.004;2023-03-13T07:56:16;99209.16;;;12.76;50.37
59063;BME280;44851;45.648;9.004;2023-03-13T07:58:42;99207.69;;;12.46;50.78
59063;BME280;44851;45.648;9.004;2023-03-13T08:01:19;99212.03;;;12.55;50.69
59063;BME280;44851;45.648;9.004;2023-03-13T08:03:45;99221.69;;;12.55;50.98
59063;BME280;44851;45.648;9.004;2023-03-13T08:06:16;99222.81;;;12.70;51.79
59063;BME280;44851;45.648;9.004;2023-03-13T08:08:42;99219.16;;;12.63;50.87
59063;BME280;44851;45.648;9.004;2023-03-13T08:11:13;99202.63;;;12.62;50.98
59063;BME280;44851;45.648;9.004;2023-03-13T08:13:39;99189.44;;;12.64;50.21
59063;BME280;44851;45.648;9.004;2023-03-13T08:16:09;99186.81;;;12.64;50.50
59063;BME280;44851;45.648;9.004;2023-03-13T08:18:36;99173.47;;;12.39;51.02
59063;BME280;44851;45.648;9.004;2023-03-13T08:21:07;99177.81;;;12.49;50.77
59063;BME280;44851;45.648;9.004;2023-03-13T08:23:33;99176.50;;;12.35;52.60
59063;BME280;44851;45.648;9.004;2023-03-13T08:26:06;99176.56;;;12.25;51.24
59063;BME280;44851;45.648;9.004;2023-03-13T08:28:33;99176.94;;;12.30;52.70
59063;BME280;44851;45.648;9.004;2023-03-13T08:31:06;99183.47;;;12.26;51.76
59063;BME280;44851;45.648;9.004;2023-03-13T08:33:32;99191.25;;;11.99;52.51
59063;BME280;44851;45.648;9.004;2023-03-13T08:35:57;99197.66;;;12.14;52.31
59063;BME280;44851;45.648;9.004;2023-03-13T08:38:23;99208.38;;;12.21;53.59
59063;BME280;44851;45.648;9.004;2023-03-13T08:40:48;99221.34;;;11.93;52.19
59063;BME280;44851;45.648;9.004;2023-03-13T08:43:13;99221.28;;;12.22;52.02
59063;BME280;44851;45.648;9.004;2023-03-13T08:45:39;99224.66;;;12.05;53.26
59063;BME280;44851;45.648;9.004;2023-03-13T08:48:04;99225.97;;;12.18;52.57
59063;BME280;44851;45.648;9.004;2023-03-13T08:50:30;99224.63;;;12.14;51.22
59063;BME280;44851;45.648;9.004;2023-03-13T08:52:56;99230.09;;;12.21;51.28
59063;BME280;44851;45.648;9.004;2023-03-13T08:55:21;99227.81;;;12.08;51.14
59063;BME280;44851;45.648;9.004;2023-03-13T08:57:46;99223.78;;;12.14;50.69
59063;BME280;44851;45.648;9.004;2023-03-13T09:00:12;99228.75;;;12.17;49.90
59063;BME280;44851;45.648;9.004;2023-03-13T09:02:38;99219.06;;;12.27;50.26
59063;BME280;44851;45.648;9.004;2023-03-13T09:05:04;99216.16;;;12.58;48.50
59063;BME280;44851;45.648;9.004;2023-03-13T09:07:30;99218.84;;;12.66;51.00
59063;BME280;44851;45.648;9.004;2023-03-13T09:09:55;99224.31;;;12.73;51.27
59063;BME280;44851;45.648;9.004;2023-03-13T09:12:21;99227.47;;;12.76;48.59
59063;BME280;44851;45.648;9.004;2023-03-13T09:14:47;99225.97;;;12.74;49.53
59063;BME280;44851;45.648;9.004;2023-03-13T09:17:12;99228.22;;;12.86;50.33
59063;BME280;44851;45.648;9.004;2023-03-13T09:19:37;99233.31;;;12.88;49.62
59063;BME280;44851;45.648;9.004;2023-03-13T09:22:03;99237.44;;;12.90;48.98
59063;BME280;44851;45.648;9.004;2023-03-13T09:24:28;99224.84;;;12.94;48.80
59063;BME280;44851;45.648;9.004;2023-03-13T09:26:54;99219.19;;;12.99;47.28
59063;BME280;44851;45.648;9.004;2023-03-13T09:29:19;99222.00;;;12.87;48.56
59063;BME280;44851;45.648;9.004;2023-03-13T09:31:45;99232.69;;;12.94;48.38
59063;BME280;44851;45.648;9.004;2023-03-13T09:34:10;99234.59;;;13.02;47.64
59063;BME280;44851;45.648;9.004;2023-03-13T09:36:36;99218.28;;;13.08;48.06
59063;BME280;44851;45.648;9.004;2023-03-13T09:39:01;99212.72;;;13.46;46.71
59063;BME280;44851;45.648;9.004;2023-03-13T09:41:42;99230.53;;;13.61;45.89
59063;BME280;44851;45.648;9.004;2023-03-13T09:46:48;99222.66;;;14.13;45.08
59063;BME280;44851;45.648;9.004;2023-03-13T09:52:10;99203.84;;;14.68;45.03
59063;BME280;44851;45.648;9.004;2023-03-13T09:54:41;99196.34;;;14.81;43.37
59063;BME280;44851;45.648;9.004;2023-03-13T09:57:22;99189.78;;;14.77;42.78
59063;BME280;44851;45.648;9.004;2023-03-13T10:00:12;99198.91;;;14.57;42.29
59063;BME280;44851;45.648;9.004;2023-03-13T10:02:45;99205.69;;;14.84;43.13
59063;BME280;44851;45.648;9.004;2023-03-13T10:05:15;99203.59;;;15.03;42.22
59063;BME280;44851;45.648;9.004;2023-03-13T10:07:42;99207.38;;;15.09;41.72
59063;BME280;44851;45.648;9.004;2023-03-13T10:10:16;99199.34;;;15.27;41.83
59063;BME280;44851;45.648;9.004;2023-03-13T10:12:45;99198.84;;;15.23;42.11
59063;BME280;44851;45.648;9.004;2023-03-13T10:15:26;99213.97;;;15.29;41.30
59063;BME280;44851;45.648;9.004;2023-03-13T10:17:52;99199.34;;;15.43;42.76
59063;BME280;44851;45.648;9.004;2023-03-13T10:20:27;99196.19;;;15.64;41.48
59063;BME280;44851;45.648;9.004;2023-03-13T10:22:58;99193.56;;;15.64;41.21
59063;BME280;44851;45.648;9.004;2023-03-13T10:25:29;99190.13;;;15.72;40.29
59063;BME280;44851;45.648;9.004;2023-03-13T10:27:56;99186.03;;;16.17;42.43
59063;BME280;44851;45.648;9.004;2023-03-13T10:32:48;99169.56;;;16.31;40.04
59063;BME280;44851;45.648;9.004;2023-03-13T10:35:24;99161.28;;;16.42;38.86
59063;BME280;44851;45.648;9.004;2023-03-13T10:38:00;99144.97;;;16.93;42.00
59063;BME280;44851;45.648;9.004;2023-03-13T10:40:27;99138.44;;;17.11;39.54
59063;BME280;44851;45.648;9.004;2023-03-13T10:43:00;99152.22;;;17.51;39.21
59063;BME280;44851;45.648;9.004;2023-03-13T10:45:31;99162.06;;;17.20;38.03
59063;BME280;44851;45.648;9.004;2023-03-13T10:48:09;99166.69;;;16.72;38.79
59063;BME280;44851;45.648;9.004;2023-03-13T10:50:36;99158.38;;;16.29;39.43
59063;BME280;44851;45.648;9.004;2023-03-13T10:55:52;99144.13;;;16.15;42.10
59063;BME280;44851;45.648;9.004;2023-03-13T10:58:44;99142.63;;;16.13;41.00
59063;BME280;44851;45.648;9.004;2023-03-13T11:01:25;99143.66;;;16.03;40.41
59063;BME280;44851;45.648;9.004;2023-03-13T11:03:55;99138.22;;;16.21;41.58
59063;BME280;44851;45.648;9.004;2023-03-13T11:09:31;99129.16;;;15.76;39.87
59063;BME280;44851;45.648;9.004;2023-03-13T11:11:53;99131.94;;;15.83;40.78
59063;BME280;44851;45.648;9.004;2023-03-13T11:14:24;99139.19;;;16.12;41.28
59063;BME280;44851;45.648;9.004;2023-03-13T11:16:54;99133.91;;;15.81;40.15
59063;BME280;44851;45.648;9.004;2023-03-13T11:22:19;99115.41;;;16.05;40.26
59063;BME280;44851;45.648;9.004;2023-03-13T11:25:00;99130.66;;;16.18;39.96
59063;BME280;44851;45.648;9.004;2023-03-13T11:38:35;99114.25;;;16.39;39.70
59063;BME280;44851;45.648;9.004;2023-03-13T11:41:13;99102.00;;;16.54;40.98
59063;BME280;44851;45.648;9.004;2023-03-13T11:44:05;99100.50;;;16.29;41.08
59063;BME280;44851;45.648;9.004;2023-03-13T11:49:38;99086.25;;;16.69;38.18
59063;BME280;44851;45.648;9.004;2023-03-13T11:57:41;99076.78;;;16.60;39.36
59063;BME280;44851;45.648;9.004;2023-03-13T12:00:27;99086.59;;;16.66;39.60
59063;BME280;44851;45.648;9.004;2023-03-13T12:02:59;99082.91;;;16.29;39.84
59063;BME280;44851;45.648;9.004;2023-03-13T12:05:46;99083.78;;;16.14;40.27
59063;BME280;44851;45.648;9.004;2023-03-13T12:08:38;99077.34;;;16.24;39.82
59063;BME280;44851;45.648;9.004;2023-03-13T12:11:12;99073.97;;;16.39;39.62
59063;BME280;44851;45.648;9.004;2023-03-13T12:13:44;99071.53;;;16.37;40.58
59063;BME280;44851;45.648;9.004;2023-03-13T12:16:19;99062.41;;;16.71;40.78
59063;BME280;44851;45.648;9.004;2023-03-13T12:18:47;99048.56;;;16.92;40.52
59063;BME280;44851;45.648;9.004;2023-03-13T12:21:41;99053.50;;;16.72;39.19
59063;BME280;44851;45.648;9.004;2023-03-13T12:24:25;99056.25;;;16.78;39.10
59063;BME280;44851;45.648;9.004;2023-03-13T12:32:36;99031.78;;;16.32;40.63
59063;BME280;44851;45.648;9.004;2023-03-13T12:35:20;99038.78;;;16.08;40.95
59063;BME280;44851;45.648;9.004;2023-03-13T12:43:09;99023.09;;;16.00;41.25
59063;BME280;44851;45.648;9.004;2023-03-13T12:46:02;99022.44;;;15.98;40.71
59063;BME280;44851;45.648;9.004;2023-03-13T12:49:08;99013.59;;;15.91;41.36
59063;BME280;44851;45.648;9.004;2023-03-13T12:51:51;99012.53;;;15.77;41.23
59063;BME280;44851;45.648;9.004;2023-03-13T12:59:31;98988.81;;;15.86;41.51
59063;BME280;44851;45.648;9.004;2023-03-13T13:01:58;98989.19;;;16.05;41.95
59063;BME280;44851;45.648;9.004;2023-03-13T13:04:41;98989.00;;;15.84;41.34
59063;BME280;44851;45.648;9.004;2023-03-13T13:10:21;98984.69;;;15.91;41.02
59063;BME280;44851;45.648;9.004;2023-03-13T13:15:47;98981.94;;;16.07;40.82
59063;BME280;44851;45.648;9.004;2023-03-13T13:18:25;98976.69;;;16.07;41.48
59063;BME280;44851;45.648;9.004;2023-03-13T13:23:41;98975.88;;;15.84;41.97
59063;BME280;44851;45.648;9.004;2023-03-13T13:28:56;98956.91;;;15.66;42.45
59063;BME280;44851;45.648;9.004;2023-03-13T13:36:53;98942.81;;;15.67;42.78
59063;BME280;44851;45.648;9.004;2023-03-13T13:39:31;98938.97;;;15.77;41.51
59063;BME280;44851;45.648;9.004;2023-03-13T13:41:59;98941.75;;;15.76;42.38
59063;BME280;44851;45.648;9.004;2023-03-13T13:44:29;98942.22;;;16.02;41.84
59063;BME280;44851;45.648;9.004;2023-03-13T13:46:55;98933.94;;;15.91;42.52
59063;BME280;44851;45.648;9.004;2023-03-13T13:49:29;98932.19;;;15.83;42.03
59063;BME280;44851;45.648;9.004;2023-03-13T13:54:31;98924.59;;;15.88;42.20
59063;BME280;44851;45.648;9.004;2023-03-13T13:56:59;98915.34;;;15.92;42.40
59063;BME280;44851;45.648;9.004;2023-03-13T13:59:38;98906.13;;;15.50;42.11
59063;BME280;44851;45.648;9.004;2023-03-13T14:04:41;98906.63;;;15.77;42.94
59063;BME280;44851;45.648;9.004;2023-03-13T14:07:16;98902.38;;;15.91;41.90
59063;BME280;44851;45.648;9.004;2023-03-13T14:12:36;98909.16;;;15.85;41.54
59063;BME280;44851;45.648;9.004;2023-03-13T14:15:21;98903.19;;;15.91;42.11
59063;BME280;44851;45.648;9.004;2023-03-13T14:20:29;98894.63;;;15.74;41.97
59063;BME280;44851;45.648;9.004;2023-03-13T14:22:58;98890.94;;;15.61;42.99
59063;BME280;44851;45.648;9.004;2023-03-13T14:25:26;98893.94;;;15.49;43.11
59063;BME280;44851;45.648;9.004;2023-03-13T14:27:53;98897.19;;;15.60;42.36
59063;BME280;44851;45.648;9.004;2023-03-13T14:30:20;98894.91;;;15.56;42.73
59063;BME280;44851;45.648;9.004;2023-03-13T14:32:46;98899.91;;;15.43;42.54
59063;BME280;44851;45.648;9.004;2023-03-13T14:35:17;98889.50;;;15.50;42.23
59063;BME280;44851;45.648;9.004;2023-03-13T14:37:49;98881.13;;;15.54;42.54
59063;BME280;44851;45.648;9.004;2023-03-13T14:42:48;98873.75;;;15.50;42.26